»·PEaware :: N5GL KIFP-KHND

N5GL :: KIFP-KHND

FLIGHT INFORMATION

Flight Status: Arrived
Operator: Privately registered:
United States
More flights under this callsign
Pilot: Georg L. (13308)
Aircraft: SOCATA TBM-900
(TBM9)
More flights by this aircraft type
Origin: KIFP Laughlin/Bullhead Intl
United States
Destination: KHND Henderson
United States
More flights between these airports :: More routes between these airports
Route: +EED V237 BLD
File this flight plan on PilotEdge
Remarks:
Altitude:
(Current/Filed)
16,000ft
Speed:
(Current/Filed)
287kts
Departed: 15-Apr-20 12:22 PM
Arrived: 15-Apr-20 12:50 PM
Distance/Time
Traveled:
57nm/0:28
Distance/Time
To Go:
Arrived

Flight Plot

Page will automatically refresh every two minutes.


Map Options




Map Legend


Flown Route
Filed Route
Departure Airport
Arrival Airport
Navaid (VOR, NDB)
Fix

Horizontal Profiles

Position Reports

Time Latitude Longitude Heading Altitude Ground
Speed
15-Apr-20 11:57 35.160671 -114.556419 267 704ft 0kts
15-Apr-20 11:58 35.160671 -114.556419 267 704ft 0kts
15-Apr-20 11:59 35.160671 -114.556419 267 704ft 0kts
15-Apr-20 12:00 35.160671 -114.556419 267 704ft 0kts
15-Apr-20 12:00 35.160671 -114.556419 267 704ft 0kts
15-Apr-20 12:01 35.160671 -114.556419 267 704ft 0kts
15-Apr-20 12:03 35.160671 -114.556419 267 704ft 0kts
15-Apr-20 12:03 35.160671 -114.556419 267 704ft 0kts
15-Apr-20 12:04 35.160671 -114.556419 267 704ft 0kts
15-Apr-20 12:05 35.160671 -114.556419 267 704ft 0kts
15-Apr-20 12:07 35.160671 -114.556419 267 704ft 0kts
15-Apr-20 12:07 35.160671 -114.556419 267 704ft 0kts
15-Apr-20 12:08 35.160671 -114.556419 267 704ft 0kts
15-Apr-20 12:09 35.160671 -114.556419 267 704ft 0kts
15-Apr-20 12:10 35.160671 -114.556419 267 704ft 0kts
15-Apr-20 12:11 35.160671 -114.556419 267 704ft 0kts
15-Apr-20 12:12 35.160671 -114.556419 267 704ft 0kts
15-Apr-20 12:13 35.160671 -114.556419 267 704ft 0kts
15-Apr-20 12:14 35.160671 -114.556420 267 704ft 0kts
15-Apr-20 12:15 35.160671 -114.556420 267 704ft 0kts
15-Apr-20 12:16 35.160671 -114.556419 267 704ft 0kts
15-Apr-20 12:17 35.160823 -114.556888 302 704ft 9kts
15-Apr-20 12:18 35.163492 -114.558628 356 704ft 14kts
15-Apr-20 12:19 35.166201 -114.559242 270 704ft 0kts
15-Apr-20 12:20 35.166201 -114.559245 271 704ft 0kts
15-Apr-20 12:21 35.153135 -114.559313 176 1072ft 118kts
15-Apr-20 12:22 35.114015 -114.556121 178 3150ft 141kts
15-Apr-20 12:23 35.071909 -114.552131 174 5131ft 176kts
15-Apr-20 12:24 35.019385 -114.546515 169 6731ft 200kts
15-Apr-20 12:25 34.958735 -114.530048 165 7077ft 248kts
15-Apr-20 12:26 34.889503 -114.509229 165 7106ft 260kts
15-Apr-20 12:27 34.828818 -114.489372 142 9437ft 201kts
15-Apr-20 12:28 34.848302 -114.454135 337 10940ft 198kts
15-Apr-20 12:29 34.900899 -114.475971 343 12720ft 201kts
15-Apr-20 12:30 34.954570 -114.495005 343 14506ft 203kts
15-Apr-20 12:31 35.009192 -114.514112 342 16054ft 209kts
15-Apr-20 12:32 35.072393 -114.536267 342 16070ft 253kts
15-Apr-20 12:33 35.141319 -114.560439 342 16068ft 264kts
15-Apr-20 12:34 35.212407 -114.585402 342 16066ft 266kts
15-Apr-20 12:35 35.283488 -114.610407 342 16065ft 266kts
15-Apr-20 12:36 35.354490 -114.635432 342 16065ft 265kts
15-Apr-20 12:37 35.426316 -114.660800 342 15621ft 277kts
15-Apr-20 12:38 35.501235 -114.687312 343 14604ft 282kts
15-Apr-20 12:39 35.578050 -114.714541 343 13112ft 290kts
15-Apr-20 12:40 35.650125 -114.752461 303 11555ft 290kts
15-Apr-20 12:41 35.689968 -114.837971 301 9484ft 281kts
15-Apr-20 12:42 35.727798 -114.918601 301 8034ft 262kts
15-Apr-20 12:43 35.763647 -114.994808 301 8036ft 251kts
15-Apr-20 12:44 35.798564 -115.069064 301 6914ft 251kts
15-Apr-20 12:45 35.833063 -115.141734 301 5553ft 227kts
15-Apr-20 12:46 35.876712 -115.152974 15 5641ft 156kts
15-Apr-20 12:47 35.918236 -115.137462 9 4120ft 140kts
15-Apr-20 12:48 35.951859 -115.135719 0 2848ft 99kts
15-Apr-20 12:49 35.970884 -115.135698 292 2449ft 9kts
15-Apr-20 12:50 35.970914 -115.136243 274 2447ft 0kts
15-Apr-20 12:51 35.971454 -115.136464 1 2445ft 12kts
15-Apr-20 12:52 35.974455 -115.137832 302 2427ft 8kts
15-Apr-20 12:53 35.974729 -115.137956 359 2426ft 0kts
15-Apr-20 12:54 35.974729 -115.137956 359 2426ft 0kts
15-Apr-20 12:55 35.974729 -115.137956 359 2426ft 0kts
15-Apr-20 12:56 35.974729 -115.137956 359 2426ft 0kts
15-Apr-20 12:57 35.974729 -115.137956 359 2426ft 0kts
15-Apr-20 12:58 35.974729 -115.137956 359 2426ft 0kts
15-Apr-20 12:59 35.974729 -115.137956 359 2426ft 0kts
15-Apr-20 13:00 35.974729 -115.137956 359 2426ft 0kts
15-Apr-20 13:01 35.974729 -115.137956 359 2426ft 0kts
15-Apr-20 13:02 35.974729 -115.137956 359 2426ft 0kts
15-Apr-20 13:03 35.974729 -115.137956 359 2426ft 0kts

Navigation Log

Ident Type
Flight plan parsing failed, navigation log unavailable